createdAt,value
2023-02-19T00:08:39.982Z,64.40
2023-02-19T00:11:10.259Z,60.88
2023-02-19T00:13:43.577Z,44.47
2023-02-19T02:51:45.676Z,26.58
2023-02-19T02:54:37.385Z,31.92
2023-02-19T02:57:04.574Z,29.27
2023-02-19T02:59:37.443Z,29.67
2023-02-19T03:02:11.556Z,31.70
2023-02-19T03:05:16.900Z,33.83
2023-02-19T03:07:52.699Z,32.08
2023-02-19T03:11:26.543Z,27.58
2023-02-19T03:14:29.564Z,34.30
2023-02-19T03:17:22.066Z,32.53
2023-02-19T03:19:54.480Z,29.52
2023-02-19T03:22:33.824Z,38.03
2023-02-19T03:25:43.464Z,37.15
2023-02-19T03:28:12.502Z,36.03
2023-02-19T03:30:43.664Z,36.80
2023-02-19T03:33:15.880Z,36.25
2023-02-19T03:35:51.153Z,38.85
2023-02-19T03:38:49.001Z,27.13
2023-02-19T03:41:35.779Z,32.88
2023-02-19T03:44:27.584Z,30.77
2023-02-19T03:47:08.763Z,37.25
2023-02-19T03:49:57.070Z,34.80
2023-02-19T03:52:48.843Z,32.05
2023-02-19T03:56:16.580Z,30.23
2023-02-19T03:59:09.264Z,46.25
2023-02-19T04:01:47.909Z,37.42
2023-02-19T04:04:20.594Z,33.15
2023-02-19T04:06:54.210Z,32.00
2023-02-19T04:09:22.916Z,32.25
2023-02-19T04:11:51.408Z,29.10
2023-02-19T04:14:31.017Z,28.48
2023-02-19T04:17:09.467Z,34.80
2023-02-19T04:19:37.981Z,34.33
2023-02-19T04:22:06.423Z,41.33
2023-02-19T04:24:43.347Z,33.38
2023-02-19T04:27:10.736Z,32.95
2023-02-19T04:29:39.191Z,30.05
2023-02-19T04:32:06.605Z,41.40
2023-02-19T04:34:33.739Z,35.85
2023-02-19T04:37:00.828Z,33.88
2023-02-19T04:39:27.881Z,32.15
2023-02-19T04:41:54.880Z,33.85
2023-02-19T04:44:21.995Z,42.20
2023-02-19T06:02:31.212Z,45.80
2023-02-19T06:04:58.245Z,41.78
2023-02-19T06:07:25.280Z,43.00
2023-02-19T06:09:52.323Z,44.17
2023-02-19T06:12:19.465Z,45.67
2023-02-19T06:14:46.428Z,42.22
2023-02-19T06:17:13.433Z,47.58
2023-02-19T06:19:40.415Z,34.17
2023-02-19T06:22:07.771Z,47.03
2023-02-19T06:24:36.033Z,46.33
2023-02-19T06:27:06.790Z,55.28
2023-02-19T06:29:34.032Z,54.97
2023-02-19T06:32:05.574Z,54.15
2023-02-19T06:34:33.199Z,60.88
2023-02-19T06:37:01.080Z,64.68
2023-02-19T06:39:28.529Z,67.88
2023-02-19T06:41:56.800Z,65.90
2023-02-19T06:44:24.728Z,76.82
2023-02-19T06:46:55.125Z,60.03
2023-02-19T06:49:22.293Z,72.07
2023-02-19T06:51:49.523Z,66.00
2023-02-19T06:54:16.541Z,53.83
2023-02-19T06:56:46.077Z,55.40
2023-02-19T06:59:17.018Z,48.30
2023-02-19T07:01:44.956Z,49.22
2023-02-19T07:04:12.461Z,47.28
2023-02-19T07:06:39.510Z,49.92
2023-02-19T07:09:08.330Z,59.58
2023-02-19T07:11:39.105Z,47.75
2023-02-19T07:14:08.615Z,52.37
2023-02-19T07:16:36.264Z,41.47
2023-02-19T07:19:03.598Z,45.85
2023-02-19T07:21:31.481Z,51.33
2023-02-19T07:23:58.629Z,59.28
2023-02-19T07:26:25.798Z,53.72
2023-02-19T07:28:53.540Z,48.97
2023-02-19T07:31:23.287Z,56.40
2023-02-19T07:33:50.754Z,56.20
2023-02-19T07:36:19.593Z,67.75
2023-02-19T07:38:46.569Z,50.78
2023-02-19T07:41:13.899Z,58.95
2023-02-19T07:43:41.067Z,39.70
2023-02-19T07:46:12.129Z,37.92
2023-02-19T07:48:40.883Z,25.25
2023-02-19T07:51:12.799Z,26.63
2023-02-19T07:53:39.994Z,25.08
2023-02-19T07:56:17.491Z,23.17
2023-02-19T07:58:46.293Z,17.45
2023-02-19T08:01:42.356Z,20.58
2023-02-19T08:04:10.375Z,17.33
2023-02-19T08:06:37.346Z,15.30
2023-02-19T08:09:05.669Z,18.83
2023-02-19T08:11:51.367Z,17.23
2023-02-19T08:14:21.013Z,15.77
2023-02-19T08:16:51.779Z,18.98
2023-02-19T08:19:19.692Z,16.20
2023-02-19T08:21:46.804Z,16.33
2023-02-19T08:24:13.791Z,16.67
2023-02-19T08:26:40.781Z,13.07
2023-02-19T08:29:08.106Z,12.18
2023-02-19T08:31:35.917Z,13.15
2023-02-19T08:34:03.209Z,11.90
2023-02-19T08:36:30.224Z,13.85
2023-02-19T08:38:57.198Z,9.80
2023-02-19T08:41:24.173Z,10.98
2023-02-19T08:43:51.215Z,11.93
2023-02-19T08:46:18.265Z,7.43
2023-02-19T08:48:45.297Z,7.18
2023-02-19T08:51:12.818Z,6.15
2023-02-19T08:53:41.480Z,6.75
2023-02-19T08:56:11.844Z,8.52
2023-02-19T08:58:39.332Z,11.88
2023-02-19T09:01:16.565Z,7.43
2023-02-19T09:03:43.626Z,9.57
2023-02-19T09:06:20.195Z,5.65
2023-02-19T09:08:47.850Z,6.63
2023-02-19T09:11:15.074Z,7.55
2023-02-19T09:13:42.561Z,7.55
2023-02-19T09:16:09.960Z,8.50
2023-02-19T09:18:36.961Z,7.00
2023-02-19T09:21:06.084Z,6.85
2023-02-19T09:23:34.604Z,8.63
2023-02-19T09:26:03.324Z,11.43
2023-02-19T09:28:30.697Z,10.88
2023-02-19T09:30:57.889Z,11.75
2023-02-19T09:33:24.958Z,9.98
2023-02-19T09:35:52.084Z,11.40
2023-02-19T09:38:19.501Z,7.10
2023-02-19T09:40:46.479Z,4.82
2023-02-19T09:43:21.867Z,8.90
2023-02-19T09:45:49.278Z,7.80
2023-02-19T09:48:16.251Z,5.45
2023-02-19T09:50:48.313Z,7.03
2023-02-19T09:53:21.236Z,4.50
2023-02-19T09:55:48.259Z,5.15
2023-02-19T09:58:57.178Z,3.53
2023-02-19T10:01:27.277Z,3.90
2023-02-19T10:03:54.287Z,2.58
2023-02-19T10:06:25.306Z,3.60
2023-02-19T10:09:11.711Z,5.68
2023-02-19T10:11:38.963Z,3.05
2023-02-19T10:14:09.556Z,5.15
2023-02-19T10:16:41.219Z,2.47
2023-02-19T10:19:15.208Z,3.20
2023-02-19T10:21:42.822Z,3.55
2023-02-19T10:24:20.905Z,2.92
2023-02-19T10:26:51.282Z,2.50
2023-02-19T10:29:19.774Z,2.70
2023-02-19T10:31:46.830Z,5.07
2023-02-19T10:34:22.649Z,5.25
2023-02-19T10:36:51.789Z,4.53
2023-02-19T10:39:47.835Z,11.90
2023-02-19T10:42:17.523Z,4.80
2023-02-19T10:44:50.078Z,6.70
2023-02-19T10:47:24.579Z,4.00
2023-02-19T10:49:53.372Z,3.03
2023-02-19T10:52:30.764Z,7.45
2023-02-19T10:55:23.390Z,2.72
2023-02-19T10:57:50.625Z,3.88
2023-02-19T11:00:22.934Z,3.33
2023-02-19T11:02:50.280Z,6.93
2023-02-19T11:05:21.036Z,4.88
2023-02-19T11:07:56.876Z,3.30
2023-02-19T11:10:38.879Z,2.88
2023-02-19T11:13:07.646Z,4.38
2023-02-19T11:15:36.413Z,91.80
2023-02-19T11:18:17.755Z,3.85
2023-02-19T11:20:58.913Z,2.13
2023-02-19T11:23:46.226Z,2.35
2023-02-19T11:26:25.791Z,1.83
2023-02-19T11:29:02.108Z,1.85
2023-02-19T11:31:33.256Z,1.75
2023-02-19T11:34:21.348Z,2.40
2023-02-19T11:37:14.912Z,2.60
2023-02-19T11:39:45.426Z,4.20
2023-02-19T11:42:29.504Z,3.67
2023-02-19T11:45:23.968Z,3.67
2023-02-19T11:48:29.607Z,3.60
2023-02-19T11:51:31.487Z,2.50
2023-02-19T11:54:10.436Z,3.10
2023-02-19T11:56:37.882Z,3.13
2023-02-19T11:59:41.642Z,2.70
2023-02-19T12:02:41.131Z,1.98
2023-02-19T12:05:23.438Z,1.88
2023-02-19T12:08:30.891Z,3.28
2023-02-19T12:11:35.381Z,2.60
2023-02-19T12:14:23.760Z,2.33
2023-02-19T12:17:23.555Z,3.35
2023-02-19T12:20:11.446Z,1.80
2023-02-19T12:22:55.119Z,1.52
2023-02-19T12:25:47.489Z,3.05
2023-02-19T12:29:00.690Z,1.45
2023-02-19T12:31:50.980Z,6.40
2023-02-19T12:34:42.512Z,4.72
2023-02-19T12:37:29.218Z,4.53
2023-02-19T12:40:18.011Z,3.72
2023-02-19T12:43:19.822Z,5.10
2023-02-19T12:46:03.813Z,6.65
2023-02-19T12:49:00.269Z,5.35
2023-02-19T12:51:49.773Z,10.48
2023-02-19T12:54:36.195Z,23.52
2023-02-19T12:57:08.819Z,27.95
2023-02-19T12:59:52.448Z,8.00
2023-02-19T13:02:33.599Z,5.07
2023-02-19T13:05:26.523Z,3.05
2023-02-19T13:08:12.621Z,3.95
2023-02-19T13:10:59.918Z,6.10
2023-02-19T13:13:58.936Z,5.05
2023-02-19T13:16:26.787Z,9.23
2023-02-19T13:19:00.903Z,5.30
2023-02-19T13:21:50.280Z,4.63
2023-02-19T13:24:32.226Z,3.92
2023-02-19T13:27:41.678Z,3.85
2023-02-19T13:30:39.689Z,4.75
2023-02-19T13:33:39.510Z,6.60
2023-02-19T13:36:11.440Z,4.00
2023-02-19T13:38:46.295Z,2.83
2023-02-19T13:41:29.682Z,4.15
2023-02-19T13:44:03.884Z,7.25
2023-02-19T13:46:43.127Z,7.07
2023-02-19T13:49:41.289Z,18.00
2023-02-19T13:52:29.985Z,9.90
2023-02-19T13:55:44.382Z,4.95
2023-02-19T13:58:33.258Z,8.95
2023-02-19T14:01:02.806Z,7.30
2023-02-19T14:03:45.653Z,9.88
2023-02-19T14:06:13.253Z,7.32
2023-02-19T14:08:57.058Z,10.57
2023-02-19T14:11:42.455Z,9.25
2023-02-19T14:14:27.827Z,5.47
2023-02-19T14:17:22.767Z,4.18
2023-02-19T14:20:02.228Z,5.75
2023-02-19T14:22:48.810Z,6.03
2023-02-19T14:25:28.511Z,6.93
2023-02-19T14:28:10.071Z,12.07
2023-02-19T14:30:53.530Z,5.00
2023-02-19T14:33:30.909Z,10.32
2023-02-19T14:36:48.989Z,4.90
2023-02-19T14:39:18.844Z,4.32
2023-02-19T14:41:58.847Z,4.32
2023-02-19T14:44:34.222Z,6.78
2023-02-19T14:47:06.901Z,4.05
2023-02-19T14:49:49.480Z,7.07
2023-02-19T14:52:41.145Z,5.47
2023-02-19T14:55:22.075Z,4.22
2023-02-19T14:57:50.982Z,5.53
2023-02-19T15:00:47.740Z,5.18
2023-02-19T15:03:36.716Z,5.35
2023-02-19T15:06:13.250Z,12.48
2023-02-19T15:08:48.038Z,7.72
2023-02-19T15:11:22.119Z,5.80
2023-02-19T15:13:56.553Z,11.10
2023-02-19T15:16:25.912Z,21.48
2023-02-19T15:18:54.049Z,8.52
2023-02-19T15:21:32.636Z,6.65
2023-02-19T15:24:05.478Z,15.82
2023-02-19T15:26:41.054Z,5.40
2023-02-19T15:29:17.257Z,13.23
2023-02-19T15:31:59.044Z,13.25
2023-02-19T15:34:30.131Z,20.33
2023-02-19T15:37:06.771Z,9.57
2023-02-19T15:39:48.383Z,13.48
2023-02-19T15:42:25.348Z,9.07
2023-02-19T15:45:02.436Z,18.13
2023-02-19T15:47:55.902Z,10.05
2023-02-19T15:50:30.906Z,8.68
2023-02-19T15:53:07.110Z,8.65
2023-02-19T15:56:09.530Z,10.38
2023-02-19T15:59:25.998Z,8.82
2023-02-19T16:01:53.292Z,9.95
2023-02-19T16:04:20.612Z,22.50
2023-02-19T16:07:02.280Z,20.90
2023-02-19T16:09:38.857Z,25.70
2023-02-19T16:12:24.106Z,7.90
2023-02-19T16:14:51.364Z,7.55
2023-02-19T16:17:23.068Z,6.38
2023-02-19T16:22:33.457Z,13.40
2023-02-19T16:25:03.234Z,7.50
2023-02-19T16:27:41.779Z,9.55
2023-02-19T16:30:28.227Z,17.27
2023-02-19T16:33:59.107Z,17.48
2023-02-19T16:36:37.270Z,11.18
2023-02-19T16:39:07.149Z,8.15
2023-02-19T16:41:34.526Z,9.32
2023-02-19T16:44:06.555Z,11.20
2023-02-19T16:46:33.714Z,11.98
2023-02-19T16:49:02.243Z,12.25
2023-02-19T16:51:29.363Z,4.18
2023-02-19T16:53:56.462Z,7.45
2023-02-19T16:56:23.580Z,9.52
2023-02-19T16:58:50.896Z,8.70
2023-02-19T17:01:18.887Z,9.68
2023-02-19T17:03:47.796Z,6.95
2023-02-19T17:06:16.030Z,6.50
2023-02-19T17:08:44.622Z,7.35
2023-02-19T17:11:17.497Z,12.07
2023-02-19T17:13:48.939Z,25.13
2023-02-19T17:16:27.426Z,7.93
2023-02-19T17:18:55.412Z,8.20
2023-02-19T17:21:29.134Z,9.57
2023-02-19T17:23:57.173Z,7.50
2023-02-19T17:26:28.381Z,8.60
2023-02-19T17:29:00.545Z,5.90
2023-02-19T17:31:28.156Z,12.75
2023-02-19T17:33:55.591Z,10.18
2023-02-19T17:36:31.993Z,5.63
2023-02-19T17:39:00.903Z,8.13
2023-02-19T17:41:28.580Z,8.68
2023-02-19T17:43:55.618Z,16.70
2023-02-19T17:46:26.287Z,16.38
2023-02-19T17:48:54.054Z,7.85
2023-02-19T17:51:21.400Z,9.00
2023-02-19T17:53:48.897Z,15.45
2023-02-19T17:56:18.852Z,9.68
2023-02-19T17:58:46.383Z,8.68
2023-02-19T18:01:14.132Z,8.32
2023-02-19T18:03:41.665Z,9.18
2023-02-19T18:06:08.935Z,8.38
2023-02-19T18:08:36.198Z,9.48
2023-02-19T18:11:03.535Z,9.70
2023-02-19T18:13:31.068Z,10.85
2023-02-19T18:15:58.176Z,6.85
2023-02-19T18:18:25.175Z,8.90
2023-02-19T18:20:52.499Z,9.95
2023-02-19T18:23:20.745Z,8.70
2023-02-19T18:25:47.825Z,9.38
2023-02-19T18:28:15.337Z,8.93
2023-02-19T18:30:42.411Z,9.32
2023-02-19T18:33:11.032Z,8.30
2023-02-19T18:35:38.566Z,12.65
2023-02-19T18:38:05.909Z,11.48
2023-02-19T18:40:32.911Z,9.25
2023-02-19T18:43:00.076Z,8.80
2023-02-19T18:45:27.906Z,11.63
2023-02-19T18:47:54.864Z,7.70
2023-02-19T18:50:22.041Z,12.45
2023-02-19T18:52:49.609Z,7.25
2023-02-19T18:55:16.800Z,6.45
2023-02-19T18:57:44.338Z,11.88
2023-02-19T19:00:22.799Z,11.43
2023-02-19T19:02:51.116Z,11.00
2023-02-19T19:05:22.944Z,8.60
2023-02-19T19:07:55.417Z,11.93
2023-02-19T19:10:23.412Z,8.63
2023-02-19T19:12:50.819Z,11.38
2023-02-19T19:15:19.096Z,17.27
2023-02-19T19:17:47.996Z,13.68
2023-02-19T19:20:21.465Z,12.25
2023-02-19T19:22:53.012Z,6.78
2023-02-19T19:25:21.789Z,13.48
2023-02-19T19:27:52.684Z,6.97
2023-02-19T19:30:20.577Z,14.67
2023-02-19T19:32:52.637Z,19.05
2023-02-19T19:35:20.552Z,9.57
2023-02-19T19:37:47.823Z,9.02
2023-02-19T19:40:17.683Z,9.68
2023-02-19T19:42:44.890Z,10.10
2023-02-19T19:45:12.601Z,11.88
2023-02-19T19:47:39.628Z,11.85
2023-02-19T19:50:06.855Z,9.43
2023-02-19T19:52:33.825Z,8.70
2023-02-19T19:55:01.258Z,8.90
2023-02-19T19:57:28.455Z,8.60
2023-02-19T19:59:55.446Z,15.25
2023-02-19T20:02:23.992Z,15.55
2023-02-19T20:04:51.059Z,11.68
2023-02-19T20:07:18.090Z,12.02
2023-02-19T20:09:51.356Z,15.32
2023-02-19T20:12:21.429Z,10.38
2023-02-19T20:14:51.382Z,10.77
2023-02-19T20:17:21.398Z,16.65
2023-02-19T20:19:49.003Z,17.83
2023-02-19T20:22:16.170Z,17.42
2023-02-19T20:24:43.258Z,14.52
2023-02-19T20:27:10.274Z,15.48
2023-02-19T20:29:37.264Z,18.10
2023-02-19T20:32:04.516Z,17.02
2023-02-19T20:34:32.060Z,14.85
2023-02-19T20:36:59.164Z,16.75
2023-02-19T20:39:29.061Z,12.60
2023-02-19T20:41:58.421Z,14.40
2023-02-19T20:44:28.477Z,16.90
2023-02-19T20:47:00.054Z,12.45
2023-02-19T20:49:31.581Z,12.68
2023-02-19T20:52:01.964Z,13.70
2023-02-19T20:54:32.131Z,14.13
2023-02-19T20:57:02.460Z,11.55
2023-02-19T20:59:35.031Z,9.90
2023-02-19T21:02:15.413Z,13.70
2023-02-19T21:04:42.616Z,7.68
2023-02-19T21:07:09.692Z,15.32
2023-02-19T21:09:36.657Z,9.65
2023-02-19T21:12:03.722Z,9.43
2023-02-19T21:14:30.808Z,10.35
2023-02-19T21:16:58.140Z,8.52
2023-02-19T21:19:25.226Z,8.90
2023-02-19T21:21:52.259Z,12.05
2023-02-19T21:24:22.417Z,7.80
2023-02-19T21:26:49.972Z,9.00
2023-02-19T21:29:20.426Z,8.25
2023-02-19T21:31:54.655Z,7.20
2023-02-19T21:34:25.800Z,8.55
2023-02-19T21:36:53.785Z,7.35
2023-02-19T21:39:23.618Z,11.15
2023-02-19T21:41:51.017Z,8.75
2023-02-19T21:44:19.473Z,9.48
2023-02-19T21:46:46.744Z,10.50
2023-02-19T21:49:14.051Z,11.30
2023-02-19T21:51:43.468Z,8.48
2023-02-19T21:54:17.832Z,7.72
2023-02-19T21:56:45.067Z,8.02
2023-02-19T21:59:12.212Z,5.15
2023-02-19T22:01:40.230Z,6.25
2023-02-19T22:04:08.647Z,6.82
2023-02-19T22:06:35.855Z,5.43
2023-02-19T22:09:03.351Z,6.28
2023-02-19T22:11:33.347Z,8.60
2023-02-19T22:14:01.073Z,14.00
2023-02-19T22:16:28.852Z,15.35
2023-02-19T22:18:58.523Z,12.43
2023-02-19T22:21:29.367Z,12.85
2023-02-19T22:23:56.566Z,13.83
2023-02-19T22:26:30.973Z,19.52
2023-02-19T22:28:59.646Z,16.58
2023-02-19T22:31:28.463Z,18.40
2023-02-19T22:33:57.843Z,23.30
2023-02-19T22:36:27.985Z,23.80
2023-02-19T22:38:55.261Z,22.67
2023-02-19T22:41:22.562Z,19.92
2023-02-19T22:43:50.040Z,26.33
2023-02-19T22:46:20.176Z,25.27
2023-02-19T22:48:50.012Z,26.40
2023-02-19T22:51:22.785Z,25.05
2023-02-19T22:53:55.638Z,26.23
2023-02-19T22:56:26.621Z,24.48
2023-02-19T22:58:54.778Z,22.83
2023-02-19T23:01:22.134Z,24.05
2023-02-19T23:03:55.520Z,23.55
2023-02-19T23:06:26.876Z,23.50
2023-02-19T23:08:56.839Z,21.55
2023-02-19T23:11:36.770Z,26.10
2023-02-19T23:14:04.020Z,23.92
2023-02-19T23:16:35.810Z,26.08
2023-02-19T23:19:08.171Z,24.13
2023-02-19T23:21:35.168Z,29.38
2023-02-19T23:24:02.357Z,22.67
2023-02-19T23:26:29.608Z,22.00
2023-02-19T23:28:56.984Z,28.45
2023-02-19T23:31:24.509Z,19.90
2023-02-19T23:33:51.561Z,23.52
2023-02-19T23:36:18.966Z,21.42
2023-02-19T23:38:46.665Z,25.08
2023-02-19T23:41:16.264Z,27.90
2023-02-19T23:43:43.552Z,21.38
2023-02-19T23:46:17.754Z,23.38
2023-02-19T23:48:46.197Z,23.15
2023-02-19T23:51:13.933Z,23.33
2023-02-19T23:53:41.045Z,21.02
2023-02-19T23:56:08.048Z,27.02
2023-02-19T23:58:35.025Z,19.13
